sensor_id;sensor_type;location;lat;lon;timestamp;P1;durP1;ratioP1;P2;durP2;ratioP2
15258;SDS011;34462;51.368;12.364;2022-09-20T00:01:29;2.53;;;1.37;;
15258;SDS011;34462;51.368;12.364;2022-09-20T00:04:01;2.90;;;1.50;;
15258;SDS011;34462;51.368;12.364;2022-09-20T00:06:33;1.93;;;1.30;;
15258;SDS011;34462;51.368;12.364;2022-09-20T00:09:02;2.40;;;1.47;;
15258;SDS011;34462;51.368;12.364;2022-09-20T00:11:32;3.60;;;1.57;;
15258;SDS011;34462;51.368;12.364;2022-09-20T00:14:02;2.30;;;1.50;;
15258;SDS011;34462;51.368;12.364;2022-09-20T00:16:34;2.07;;;1.20;;
15258;SDS011;34462;51.368;12.364;2022-09-20T00:19:06;1.90;;;1.37;;
15258;SDS011;34462;51.368;12.364;2022-09-20T00:21:42;2.53;;;1.20;;
15258;SDS011;34462;51.368;12.364;2022-09-20T00:24:10;2.70;;;1.50;;
15258;SDS011;34462;51.368;12.364;2022-09-20T00:26:38;2.87;;;1.50;;
15258;SDS011;34462;51.368;12.364;2022-09-20T00:29:07;3.13;;;1.60;;
15258;SDS011;34462;51.368;12.364;2022-09-20T00:31:35;3.47;;;1.67;;
15258;SDS011;34462;51.368;12.364;2022-09-20T00:34:05;2.53;;;1.50;;
15258;SDS011;34462;51.368;12.364;2022-09-20T00:36:52;2.33;;;1.40;;
15258;SDS011;34462;51.368;12.364;2022-09-20T00:39:21;3.87;;;1.60;;
15258;SDS011;34462;51.368;12.364;2022-09-20T00:41:49;3.00;;;1.40;;
15258;SDS011;34462;51.368;12.364;2022-09-20T00:47:12;2.90;;;1.37;;
15258;SDS011;34462;51.368;12.364;2022-09-20T00:49:48;2.73;;;1.27;;
15258;SDS011;34462;51.368;12.364;2022-09-20T00:52:23;2.27;;;1.40;;
15258;SDS011;34462;51.368;12.364;2022-09-20T00:54:54;4.77;;;1.53;;
15258;SDS011;34462;51.368;12.364;2022-09-20T00:57:23;7.33;;;1.90;;
15258;SDS011;34462;51.368;12.364;2022-09-20T00:59:52;5.53;;;1.73;;
15258;SDS011;34462;51.368;12.364;2022-09-20T01:02:22;4.50;;;1.60;;
15258;SDS011;34462;51.368;12.364;2022-09-20T01:04:54;3.73;;;1.40;;
15258;SDS011;34462;51.368;12.364;2022-09-20T01:07:25;2.33;;;1.47;;
15258;SDS011;34462;51.368;12.364;2022-09-20T01:09:55;4.20;;;1.63;;
15258;SDS011;34462;51.368;12.364;2022-09-20T01:12:23;2.33;;;1.70;;
15258;SDS011;34462;51.368;12.364;2022-09-20T01:14:57;5.33;;;1.60;;
15258;SDS011;34462;51.368;12.364;2022-09-20T01:17:27;3.70;;;1.43;;
15258;SDS011;34462;51.368;12.364;2022-09-20T01:20:07;3.83;;;2.20;;
15258;SDS011;34462;51.368;12.364;2022-09-20T01:25:56;5.97;;;2.70;;
15258;SDS011;34462;51.368;12.364;2022-09-20T01:28:48;3.03;;;2.40;;
15258;SDS011;34462;51.368;12.364;2022-09-20T01:31:28;2.83;;;2.23;;
15258;SDS011;34462;51.368;12.364;2022-09-20T01:34:02;4.03;;;2.20;;
15258;SDS011;34462;51.368;12.364;2022-09-20T01:36:38;3.10;;;2.20;;
15258;SDS011;34462;51.368;12.364;2022-09-20T01:39:17;5.73;;;2.33;;
15258;SDS011;34462;51.368;12.364;2022-09-20T01:41:57;3.70;;;2.07;;
15258;SDS011;34462;51.368;12.364;2022-09-20T01:44:33;2.97;;;2.20;;
15258;SDS011;34462;51.368;12.364;2022-09-20T01:47:14;3.30;;;2.10;;
15258;SDS011;34462;51.368;12.364;2022-09-20T01:50:01;4.10;;;2.00;;
15258;SDS011;34462;51.368;12.364;2022-09-20T01:52:48;2.73;;;1.83;;
15258;SDS011;34462;51.368;12.364;2022-09-20T01:59:12;4.20;;;2.27;;
15258;SDS011;34462;51.368;12.364;2022-09-20T02:02:12;5.50;;;2.20;;
15258;SDS011;34462;51.368;12.364;2022-09-20T02:05:11;4.63;;;2.20;;
15258;SDS011;34462;51.368;12.364;2022-09-20T02:08:07;5.20;;;2.20;;
15258;SDS011;34462;51.368;12.364;2022-09-20T02:11:08;4.10;;;2.30;;
15258;SDS011;34462;51.368;12.364;2022-09-20T02:13:57;5.50;;;2.40;;
15258;SDS011;34462;51.368;12.364;2022-09-20T02:16:40;4.63;;;2.10;;
15258;SDS011;34462;51.368;12.364;2022-09-20T02:19:20;4.40;;;2.10;;
15258;SDS011;34462;51.368;12.364;2022-09-20T02:22:21;3.37;;;2.00;;
15258;SDS011;34462;51.368;12.364;2022-09-20T02:25:13;3.77;;;2.30;;
15258;SDS011;34462;51.368;12.364;2022-09-20T02:28:12;3.70;;;2.30;;
15258;SDS011;34462;51.368;12.364;2022-09-20T02:31:00;4.30;;;2.37;;
15258;SDS011;34462;51.368;12.364;2022-09-20T02:33:46;6.47;;;2.30;;
15258;SDS011;34462;51.368;12.364;2022-09-20T02:36:39;4.37;;;2.30;;
15258;SDS011;34462;51.368;12.364;2022-09-20T02:39:23;3.53;;;2.20;;
15258;SDS011;34462;51.368;12.364;2022-09-20T02:42:03;5.13;;;2.20;;
15258;SDS011;34462;51.368;12.364;2022-09-20T02:44:46;4.33;;;2.17;;
15258;SDS011;34462;51.368;12.364;2022-09-20T02:47:30;5.10;;;2.63;;
15258;SDS011;34462;51.368;12.364;2022-09-20T02:50:10;4.60;;;2.23;;
15258;SDS011;34462;51.368;12.364;2022-09-20T02:52:55;3.17;;;2.00;;
15258;SDS011;34462;51.368;12.364;2022-09-20T02:55:46;2.30;;;2.07;;
15258;SDS011;34462;51.368;12.364;2022-09-20T02:58:28;5.13;;;2.20;;
15258;SDS011;34462;51.368;12.364;2022-09-20T03:01:16;5.53;;;2.20;;
15258;SDS011;34462;51.368;12.364;2022-09-20T03:04:11;3.37;;;1.90;;
15258;SDS011;34462;51.368;12.364;2022-09-20T03:07:08;3.93;;;2.07;;
15258;SDS011;34462;51.368;12.364;2022-09-20T03:09:50;5.03;;;2.07;;
15258;SDS011;34462;51.368;12.364;2022-09-20T03:12:39;3.43;;;1.77;;
15258;SDS011;34462;51.368;12.364;2022-09-20T03:15:29;2.93;;;1.70;;
15258;SDS011;34462;51.368;12.364;2022-09-20T03:18:13;4.90;;;2.00;;
15258;SDS011;34462;51.368;12.364;2022-09-20T03:20:50;2.63;;;2.03;;
15258;SDS011;34462;51.368;12.364;2022-09-20T03:23:38;2.93;;;1.60;;
15258;SDS011;34462;51.368;12.364;2022-09-20T03:26:28;4.87;;;2.10;;
15258;SDS011;34462;51.368;12.364;2022-09-20T03:29:16;4.20;;;2.00;;
15258;SDS011;34462;51.368;12.364;2022-09-20T03:32:05;2.83;;;1.90;;
15258;SDS011;34462;51.368;12.364;2022-09-20T03:34:58;3.23;;;1.97;;
15258;SDS011;34462;51.368;12.364;2022-09-20T03:37:48;2.63;;;1.70;;
15258;SDS011;34462;51.368;12.364;2022-09-20T03:40:54;2.17;;;1.97;;
15258;SDS011;34462;51.368;12.364;2022-09-20T03:43:42;4.57;;;1.80;;
15258;SDS011;34462;51.368;12.364;2022-09-20T03:46:34;3.93;;;1.93;;
15258;SDS011;34462;51.368;12.364;2022-09-20T03:49:18;3.97;;;1.87;;
15258;SDS011;34462;51.368;12.364;2022-09-20T03:52:24;3.53;;;1.90;;
15258;SDS011;34462;51.368;12.364;2022-09-20T03:55:29;5.07;;;1.60;;
15258;SDS011;34462;51.368;12.364;2022-09-20T03:58:19;3.70;;;1.80;;
15258;SDS011;34462;51.368;12.364;2022-09-20T04:01:04;5.77;;;2.90;;
15258;SDS011;34462;51.368;12.364;2022-09-20T04:03:59;3.80;;;1.90;;
15258;SDS011;34462;51.368;12.364;2022-09-20T04:06:44;4.13;;;1.80;;
15258;SDS011;34462;51.368;12.364;2022-09-20T04:09:36;5.23;;;2.30;;
15258;SDS011;34462;51.368;12.364;2022-09-20T04:12:22;4.27;;;2.10;;
15258;SDS011;34462;51.368;12.364;2022-09-20T04:15:08;6.50;;;2.57;;
15258;SDS011;34462;51.368;12.364;2022-09-20T04:17:54;4.87;;;1.93;;
15258;SDS011;34462;51.368;12.364;2022-09-20T04:20:33;5.07;;;2.00;;
15258;SDS011;34462;51.368;12.364;2022-09-20T04:23:14;4.40;;;1.77;;
15258;SDS011;34462;51.368;12.364;2022-09-20T04:25:58;5.37;;;1.97;;
15258;SDS011;34462;51.368;12.364;2022-09-20T04:28:31;5.73;;;2.57;;
15258;SDS011;34462;51.368;12.364;2022-09-20T04:31:13;4.07;;;2.10;;
15258;SDS011;34462;51.368;12.364;2022-09-20T04:33:56;6.10;;;2.23;;
15258;SDS011;34462;51.368;12.364;2022-09-20T04:36:35;3.00;;;2.13;;
15258;SDS011;34462;51.368;12.364;2022-09-20T04:39:22;4.80;;;2.17;;
15258;SDS011;34462;51.368;12.364;2022-09-20T04:42:26;7.67;;;2.37;;
15258;SDS011;34462;51.368;12.364;2022-09-20T04:48:56;5.63;;;2.30;;
15258;SDS011;34462;51.368;12.364;2022-09-20T04:52:13;4.23;;;2.37;;
15258;SDS011;34462;51.368;12.364;2022-09-20T04:55:24;6.47;;;2.47;;
15258;SDS011;34462;51.368;12.364;2022-09-20T05:11:24;4.50;;;2.70;;
15258;SDS011;34462;51.368;12.364;2022-09-20T05:14:35;4.33;;;3.03;;
15258;SDS011;34462;51.368;12.364;2022-09-20T05:17:35;6.13;;;3.20;;
15258;SDS011;34462;51.368;12.364;2022-09-20T05:20:51;7.33;;;3.57;;
15258;SDS011;34462;51.368;12.364;2022-09-20T05:23:59;4.50;;;2.70;;
15258;SDS011;34462;51.368;12.364;2022-09-20T05:26:54;9.60;;;5.23;;
15258;SDS011;34462;51.368;12.364;2022-09-20T05:29:41;7.17;;;3.63;;
15258;SDS011;34462;51.368;12.364;2022-09-20T05:32:21;5.27;;;3.20;;
15258;SDS011;34462;51.368;12.364;2022-09-20T05:34:56;6.80;;;3.50;;
15258;SDS011;34462;51.368;12.364;2022-09-20T05:37:36;9.50;;;3.87;;
15258;SDS011;34462;51.368;12.364;2022-09-20T05:40:17;8.07;;;3.10;;
15258;SDS011;34462;51.368;12.364;2022-09-20T05:42:58;6.77;;;3.40;;
15258;SDS011;34462;51.368;12.364;2022-09-20T05:45:45;5.93;;;3.60;;
15258;SDS011;34462;51.368;12.364;2022-09-20T05:48:31;5.97;;;3.60;;
15258;SDS011;34462;51.368;12.364;2022-09-20T05:51:12;10.90;;;4.30;;
15258;SDS011;34462;51.368;12.364;2022-09-20T05:54:02;8.47;;;4.87;;
15258;SDS011;34462;51.368;12.364;2022-09-20T05:57:06;11.33;;;4.40;;
15258;SDS011;34462;51.368;12.364;2022-09-20T05:59:57;8.67;;;4.53;;
15258;SDS011;34462;51.368;12.364;2022-09-20T06:02:38;8.67;;;5.37;;
15258;SDS011;34462;51.368;12.364;2022-09-20T06:05:22;7.60;;;4.97;;
15258;SDS011;34462;51.368;12.364;2022-09-20T06:08:10;7.13;;;4.83;;
15258;SDS011;34462;51.368;12.364;2022-09-20T06:11:15;10.97;;;5.30;;
15258;SDS011;34462;51.368;12.364;2022-09-20T06:14:12;9.37;;;5.63;;
15258;SDS011;34462;51.368;12.364;2022-09-20T06:16:55;11.13;;;5.40;;
15258;SDS011;34462;51.368;12.364;2022-09-20T06:19:34;10.47;;;5.77;;
15258;SDS011;34462;51.368;12.364;2022-09-20T06:22:11;9.03;;;5.27;;
15258;SDS011;34462;51.368;12.364;2022-09-20T06:24:46;9.97;;;5.57;;
15258;SDS011;34462;51.368;12.364;2022-09-20T06:27:27;7.07;;;4.87;;
15258;SDS011;34462;51.368;12.364;2022-09-20T06:30:03;8.27;;;5.37;;
15258;SDS011;34462;51.368;12.364;2022-09-20T06:32:52;13.57;;;5.60;;
15258;SDS011;34462;51.368;12.364;2022-09-20T06:35:27;10.20;;;5.77;;
15258;SDS011;34462;51.368;12.364;2022-09-20T06:38:07;8.17;;;4.53;;
15258;SDS011;34462;51.368;12.364;2022-09-20T06:41:16;8.27;;;5.30;;
15258;SDS011;34462;51.368;12.364;2022-09-20T06:43:55;7.57;;;4.90;;
15258;SDS011;34462;51.368;12.364;2022-09-20T06:46:25;9.13;;;4.43;;
15258;SDS011;34462;51.368;12.364;2022-09-20T06:48:56;7.73;;;4.53;;
15258;SDS011;34462;51.368;12.364;2022-09-20T06:51:25;8.83;;;5.47;;
15258;SDS011;34462;51.368;12.364;2022-09-20T06:54:00;9.20;;;4.90;;
15258;SDS011;34462;51.368;12.364;2022-09-20T06:56:29;10.10;;;4.50;;
15258;SDS011;34462;51.368;12.364;2022-09-20T06:59:01;8.00;;;4.70;;
15258;SDS011;34462;51.368;12.364;2022-09-20T07:01:30;9.97;;;4.93;;
15258;SDS011;34462;51.368;12.364;2022-09-20T07:03:59;7.33;;;4.60;;
15258;SDS011;34462;51.368;12.364;2022-09-20T07:06:28;7.70;;;4.17;;
15258;SDS011;34462;51.368;12.364;2022-09-20T07:08:56;6.15;;;4.30;;
15258;SDS011;34462;51.368;12.364;2022-09-20T07:11:24;5.17;;;4.30;;
15258;SDS011;34462;51.368;12.364;2022-09-20T07:13:53;6.37;;;4.30;;
15258;SDS011;34462;51.368;12.364;2022-09-20T07:16:23;10.30;;;4.70;;
15258;SDS011;34462;51.368;12.364;2022-09-20T07:18:52;10.53;;;4.60;;
15258;SDS011;34462;51.368;12.364;2022-09-20T07:21:23;8.37;;;4.63;;
15258;SDS011;34462;51.368;12.364;2022-09-20T07:23:51;7.33;;;5.13;;
15258;SDS011;34462;51.368;12.364;2022-09-20T07:26:19;8.83;;;5.23;;
15258;SDS011;34462;51.368;12.364;2022-09-20T07:28:50;12.23;;;5.03;;
15258;SDS011;34462;51.368;12.364;2022-09-20T07:31:19;6.83;;;4.53;;
15258;SDS011;34462;51.368;12.364;2022-09-20T07:33:50;10.63;;;4.93;;
15258;SDS011;34462;51.368;12.364;2022-09-20T07:36:18;8.70;;;4.70;;
15258;SDS011;34462;51.368;12.364;2022-09-20T07:38:48;8.60;;;5.03;;
15258;SDS011;34462;51.368;12.364;2022-09-20T07:41:18;8.93;;;5.00;;
15258;SDS011;34462;51.368;12.364;2022-09-20T07:43:48;9.30;;;5.40;;
15258;SDS011;34462;51.368;12.364;2022-09-20T07:46:17;11.43;;;5.63;;
15258;SDS011;34462;51.368;12.364;2022-09-20T07:48:47;11.50;;;5.50;;
15258;SDS011;34462;51.368;12.364;2022-09-20T07:51:15;6.70;;;4.80;;
15258;SDS011;34462;51.368;12.364;2022-09-20T07:53:43;10.63;;;5.13;;
15258;SDS011;34462;51.368;12.364;2022-09-20T07:56:13;9.80;;;5.90;;
15258;SDS011;34462;51.368;12.364;2022-09-20T07:58:43;7.40;;;4.80;;
15258;SDS011;34462;51.368;12.364;2022-09-20T08:01:17;9.20;;;5.20;;
15258;SDS011;34462;51.368;12.364;2022-09-20T08:03:47;9.60;;;5.53;;
15258;SDS011;34462;51.368;12.364;2022-09-20T08:06:16;8.00;;;5.73;;
15258;SDS011;34462;51.368;12.364;2022-09-20T08:08:46;9.48;;;5.40;;
15258;SDS011;34462;51.368;12.364;2022-09-20T08:11:18;9.90;;;6.30;;
15258;SDS011;34462;51.368;12.364;2022-09-20T08:13:53;8.33;;;5.73;;
15258;SDS011;34462;51.368;12.364;2022-09-20T08:16:36;8.50;;;5.00;;
15258;SDS011;34462;51.368;12.364;2022-09-20T08:19:07;9.10;;;5.85;;
15258;SDS011;34462;51.368;12.364;2022-09-20T08:21:37;9.07;;;5.25;;
15258;SDS011;34462;51.368;12.364;2022-09-20T08:24:06;8.88;;;5.45;;
15258;SDS011;34462;51.368;12.364;2022-09-20T08:26:35;7.93;;;5.25;;
15258;SDS011;34462;51.368;12.364;2022-09-20T08:29:04;8.82;;;5.72;;
15258;SDS011;34462;51.368;12.364;2022-09-20T08:31:33;11.65;;;5.53;;
15258;SDS011;34462;51.368;12.364;2022-09-20T08:34:06;7.78;;;5.15;;
15258;SDS011;34462;51.368;12.364;2022-09-20T08:36:36;9.23;;;5.35;;
15258;SDS011;34462;51.368;12.364;2022-09-20T08:39:10;8.40;;;5.13;;
15258;SDS011;34462;51.368;12.364;2022-09-20T08:42:04;7.97;;;5.40;;
15258;SDS011;34462;51.368;12.364;2022-09-20T08:44:42;9.27;;;5.40;;
15258;SDS011;34462;51.368;12.364;2022-09-20T08:47:25;7.05;;;4.47;;
15258;SDS011;34462;51.368;12.364;2022-09-20T08:49:58;6.60;;;4.43;;
15258;SDS011;34462;51.368;12.364;2022-09-20T08:52:43;11.60;;;4.65;;
15258;SDS011;34462;51.368;12.364;2022-09-20T08:55:14;5.82;;;4.03;;
15258;SDS011;34462;51.368;12.364;2022-09-20T08:57:47;5.50;;;3.92;;
15258;SDS011;34462;51.368;12.364;2022-09-20T09:00:20;7.47;;;4.15;;
15258;SDS011;34462;51.368;12.364;2022-09-20T09:02:53;8.07;;;3.90;;
15258;SDS011;34462;51.368;12.364;2022-09-20T09:05:28;4.25;;;3.53;;
15258;SDS011;34462;51.368;12.364;2022-09-20T09:08:02;6.70;;;3.58;;
15258;SDS011;34462;51.368;12.364;2022-09-20T09:10:37;6.20;;;3.50;;
15258;SDS011;34462;51.368;12.364;2022-09-20T09:13:11;6.40;;;3.60;;
15258;SDS011;34462;51.368;12.364;2022-09-20T09:15:50;5.82;;;3.40;;
15258;SDS011;34462;51.368;12.364;2022-09-20T09:18:28;4.80;;;3.35;;
15258;SDS011;34462;51.368;12.364;2022-09-20T09:21:02;5.85;;;3.83;;
15258;SDS011;34462;51.368;12.364;2022-09-20T09:23:38;7.05;;;3.78;;
15258;SDS011;34462;51.368;12.364;2022-09-20T09:26:16;6.10;;;4.00;;
15258;SDS011;34462;51.368;12.364;2022-09-20T09:31:42;6.50;;;4.07;;
15258;SDS011;34462;51.368;12.364;2022-09-20T09:34:24;6.65;;;3.85;;
15258;SDS011;34462;51.368;12.364;2022-09-20T09:36:55;5.18;;;3.53;;
15258;SDS011;34462;51.368;12.364;2022-09-20T09:39:24;6.63;;;4.10;;
15258;SDS011;34462;51.368;12.364;2022-09-20T09:41:55;5.13;;;3.53;;
15258;SDS011;34462;51.368;12.364;2022-09-20T09:44:28;5.32;;;3.75;;
15258;SDS011;34462;51.368;12.364;2022-09-20T09:46:59;6.32;;;3.88;;
15258;SDS011;34462;51.368;12.364;2022-09-20T09:49:28;6.00;;;4.20;;
15258;SDS011;34462;51.368;12.364;2022-09-20T09:52:04;9.15;;;4.20;;
15258;SDS011;34462;51.368;12.364;2022-09-20T09:54:40;5.30;;;4.45;;
15258;SDS011;34462;51.368;12.364;2022-09-20T09:57:18;6.43;;;4.22;;
15258;SDS011;34462;51.368;12.364;2022-09-20T10:00:06;4.70;;;3.65;;
15258;SDS011;34462;51.368;12.364;2022-09-20T10:02:49;6.65;;;4.32;;
15258;SDS011;34462;51.368;12.364;2022-09-20T10:05:52;6.05;;;3.50;;
15258;SDS011;34462;51.368;12.364;2022-09-20T10:08:45;4.97;;;3.00;;
15258;SDS011;34462;51.368;12.364;2022-09-20T10:11:42;6.05;;;3.08;;
15258;SDS011;34462;51.368;12.364;2022-09-20T10:14:33;5.65;;;3.33;;
15258;SDS011;34462;51.368;12.364;2022-09-20T10:17:26;6.10;;;3.53;;
15258;SDS011;34462;51.368;12.364;2022-09-20T10:20:19;7.13;;;3.20;;
15258;SDS011;34462;51.368;12.364;2022-09-20T10:23:11;4.90;;;2.80;;
15258;SDS011;34462;51.368;12.364;2022-09-20T10:26:17;7.65;;;3.17;;
15258;SDS011;34462;51.368;12.364;2022-09-20T10:29:08;5.05;;;2.70;;
15258;SDS011;34462;51.368;12.364;2022-09-20T10:31:53;4.80;;;2.80;;
15258;SDS011;34462;51.368;12.364;2022-09-20T10:34:49;6.95;;;3.83;;
15258;SDS011;34462;51.368;12.364;2022-09-20T10:37:42;4.60;;;3.08;;
15258;SDS011;34462;51.368;12.364;2022-09-20T10:40:29;7.68;;;3.60;;
15258;SDS011;34462;51.368;12.364;2022-09-20T10:43:36;6.05;;;3.25;;
15258;SDS011;34462;51.368;12.364;2022-09-20T10:46:32;3.88;;;2.40;;
15258;SDS011;34462;51.368;12.364;2022-09-20T10:49:17;3.53;;;2.55;;
15258;SDS011;34462;51.368;12.364;2022-09-20T10:51:56;4.55;;;2.78;;
15258;SDS011;34462;51.368;12.364;2022-09-20T10:54:57;5.10;;;2.70;;
15258;SDS011;34462;51.368;12.364;2022-09-20T10:57:56;5.63;;;3.50;;
15258;SDS011;34462;51.368;12.364;2022-09-20T11:00:55;7.60;;;4.05;;
15258;SDS011;34462;51.368;12.364;2022-09-20T11:07:13;7.07;;;3.53;;
15258;SDS011;34462;51.368;12.364;2022-09-20T11:09:49;4.32;;;3.25;;
15258;SDS011;34462;51.368;12.364;2022-09-20T11:12:26;5.05;;;3.42;;
15258;SDS011;34462;51.368;12.364;2022-09-20T11:15:04;5.30;;;3.33;;
15258;SDS011;34462;51.368;12.364;2022-09-20T11:17:48;5.57;;;3.47;;
15258;SDS011;34462;51.368;12.364;2022-09-20T11:20:31;4.88;;;3.30;;
15258;SDS011;34462;51.368;12.364;2022-09-20T11:23:11;5.45;;;2.92;;
15258;SDS011;34462;51.368;12.364;2022-09-20T11:25:47;5.30;;;2.97;;
15258;SDS011;34462;51.368;12.364;2022-09-20T11:28:21;5.22;;;3.38;;
15258;SDS011;34462;51.368;12.364;2022-09-20T11:30:56;4.22;;;3.22;;
15258;SDS011;34462;51.368;12.364;2022-09-20T11:33:31;6.07;;;3.70;;
15258;SDS011;34462;51.368;12.364;2022-09-20T11:36:12;5.05;;;2.88;;
15258;SDS011;34462;51.368;12.364;2022-09-20T11:38:48;4.22;;;2.80;;
15258;SDS011;34462;51.368;12.364;2022-09-20T11:41:24;6.35;;;2.53;;
15258;SDS011;34462;51.368;12.364;2022-09-20T11:43:55;4.20;;;2.45;;
15258;SDS011;34462;51.368;12.364;2022-09-20T11:46:32;3.05;;;2.10;;
15258;SDS011;34462;51.368;12.364;2022-09-20T11:49:10;4.32;;;2.33;;
15258;SDS011;34462;51.368;12.364;2022-09-20T11:51:50;3.30;;;2.55;;
15258;SDS011;34462;51.368;12.364;2022-09-20T11:54:51;2.97;;;2.25;;
15258;SDS011;34462;51.368;12.364;2022-09-20T11:57:38;4.95;;;2.75;;
15258;SDS011;34462;51.368;12.364;2022-09-20T12:00:07;3.10;;;2.03;;
15258;SDS011;34462;51.368;12.364;2022-09-20T12:02:37;2.47;;;1.95;;
15258;SDS011;34462;51.368;12.364;2022-09-20T12:05:24;2.72;;;1.90;;
15258;SDS011;34462;51.368;12.364;2022-09-20T12:07:59;4.22;;;2.30;;
15258;SDS011;34462;51.368;12.364;2022-09-20T12:10:33;2.67;;;1.90;;
15258;SDS011;34462;51.368;12.364;2022-09-20T12:13:06;3.25;;;2.30;;
15258;SDS011;34462;51.368;12.364;2022-09-20T12:15:55;3.65;;;2.30;;
15258;SDS011;34462;51.368;12.364;2022-09-20T12:18:37;3.70;;;2.25;;
15258;SDS011;34462;51.368;12.364;2022-09-20T12:21:27;2.55;;;2.28;;
15258;SDS011;34462;51.368;12.364;2022-09-20T12:26:47;3.33;;;2.47;;
15258;SDS011;34462;51.368;12.364;2022-09-20T12:38:46;3.60;;;2.38;;
15258;SDS011;34462;51.368;12.364;2022-09-20T12:41:50;4.15;;;2.90;;
15258;SDS011;34462;51.368;12.364;2022-09-20T12:44:27;3.97;;;2.55;;
15258;SDS011;34462;51.368;12.364;2022-09-20T12:47:01;4.88;;;2.90;;
15258;SDS011;34462;51.368;12.364;2022-09-20T12:49:41;2.88;;;2.30;;
15258;SDS011;34462;51.368;12.364;2022-09-20T12:52:36;3.30;;;2.60;;
15258;SDS011;34462;51.368;12.364;2022-09-20T12:55:26;2.45;;;2.25;;
15258;SDS011;34462;51.368;12.364;2022-09-20T12:58:15;2.47;;;2.28;;
15258;SDS011;34462;51.368;12.364;2022-09-20T13:03:53;2.72;;;2.10;;
15258;SDS011;34462;51.368;12.364;2022-09-20T13:10:21;4.53;;;2.53;;
15258;SDS011;34462;51.368;12.364;2022-09-20T13:12:57;2.47;;;2.20;;
15258;SDS011;34462;51.368;12.364;2022-09-20T13:15:32;3.35;;;2.25;;
15258;SDS011;34462;51.368;12.364;2022-09-20T13:18:02;2.90;;;2.03;;
15258;SDS011;34462;51.368;12.364;2022-09-20T13:20:33;4.03;;;2.13;;
15258;SDS011;34462;51.368;12.364;2022-09-20T13:23:02;3.47;;;1.88;;
15258;SDS011;34462;51.368;12.364;2022-09-20T13:25:31;2.30;;;1.90;;
15258;SDS011;34462;51.368;12.364;2022-09-20T13:28:04;2.42;;;2.15;;
15258;SDS011;34462;51.368;12.364;2022-09-20T13:30:37;3.10;;;1.92;;
15258;SDS011;34462;51.368;12.364;2022-09-20T13:33:18;2.15;;;1.95;;
15258;SDS011;34462;51.368;12.364;2022-09-20T13:35:50;1.48;;;1.38;;
15258;SDS011;34462;51.368;12.364;2022-09-20T13:38:23;1.98;;;1.58;;
15258;SDS011;34462;51.368;12.364;2022-09-20T13:40:58;2.45;;;1.50;;
15258;SDS011;34462;51.368;12.364;2022-09-20T13:43:35;1.40;;;1.30;;
15258;SDS011;34462;51.368;12.364;2022-09-20T13:46:09;2.30;;;1.60;;
15258;SDS011;34462;51.368;12.364;2022-09-20T13:48:41;3.50;;;1.70;;
15258;SDS011;34462;51.368;12.364;2022-09-20T13:51:15;3.40;;;1.50;;
15258;SDS011;34462;51.368;12.364;2022-09-20T13:53:45;2.50;;;1.63;;
15258;SDS011;34462;51.368;12.364;2022-09-20T13:56:17;2.97;;;2.03;;
15258;SDS011;34462;51.368;12.364;2022-09-20T13:58:50;2.30;;;1.65;;
15258;SDS011;34462;51.368;12.364;2022-09-20T14:01:25;2.00;;;1.50;;
15258;SDS011;34462;51.368;12.364;2022-09-20T14:04:00;4.03;;;1.77;;
15258;SDS011;34462;51.368;12.364;2022-09-20T14:06:33;2.28;;;1.40;;
15258;SDS011;34462;51.368;12.364;2022-09-20T14:09:03;1.77;;;1.48;;
15258;SDS011;34462;51.368;12.364;2022-09-20T14:11:36;2.03;;;1.63;;
15258;SDS011;34462;51.368;12.364;2022-09-20T14:14:07;3.03;;;1.45;;
15258;SDS011;34462;51.368;12.364;2022-09-20T14:16:46;2.92;;;1.30;;
15258;SDS011;34462;51.368;12.364;2022-09-20T14:19:17;2.65;;;1.50;;
15258;SDS011;34462;51.368;12.364;2022-09-20T14:21:49;2.83;;;1.52;;
15258;SDS011;34462;51.368;12.364;2022-09-20T14:24:25;2.33;;;1.58;;
15258;SDS011;34462;51.368;12.364;2022-09-20T14:26:59;4.60;;;1.30;;
15258;SDS011;34462;51.368;12.364;2022-09-20T14:29:38;2.00;;;1.60;;
15258;SDS011;34462;51.368;12.364;2022-09-20T14:32:14;2.08;;;1.42;;
15258;SDS011;34462;51.368;12.364;2022-09-20T14:35:14;1.85;;;1.33;;
15258;SDS011;34462;51.368;12.364;2022-09-20T14:37:45;2.80;;;1.50;;
15258;SDS011;34462;51.368;12.364;2022-09-20T14:40:21;2.38;;;1.48;;
15258;SDS011;34462;51.368;12.364;2022-09-20T14:42:53;2.53;;;1.35;;
15258;SDS011;34462;51.368;12.364;2022-09-20T14:45:28;1.75;;;1.17;;
15258;SDS011;34462;51.368;12.364;2022-09-20T14:48:01;1.83;;;0.95;;
15258;SDS011;34462;51.368;12.364;2022-09-20T14:50:36;1.25;;;0.90;;
15258;SDS011;34462;51.368;12.364;2022-09-20T14:53:21;1.00;;;0.80;;
15258;SDS011;34462;51.368;12.364;2022-09-20T14:55:58;1.15;;;0.77;;
15258;SDS011;34462;51.368;12.364;2022-09-20T15:01:54;1.33;;;0.98;;
15258;SDS011;34462;51.368;12.364;2022-09-20T15:04:30;2.00;;;1.00;;
15258;SDS011;34462;51.368;12.364;2022-09-20T15:07:00;1.63;;;1.10;;
15258;SDS011;34462;51.368;12.364;2022-09-20T15:09:32;2.47;;;1.00;;
15258;SDS011;34462;51.368;12.364;2022-09-20T15:12:02;1.60;;;1.00;;
15258;SDS011;34462;51.368;12.364;2022-09-20T15:14:32;1.00;;;0.90;;
15258;SDS011;34462;51.368;12.364;2022-09-20T15:17:03;1.83;;;1.00;;
15258;SDS011;34462;51.368;12.364;2022-09-20T15:19:33;1.70;;;1.10;;
15258;SDS011;34462;51.368;12.364;2022-09-20T15:22:01;1.42;;;1.15;;
15258;SDS011;34462;51.368;12.364;2022-09-20T15:24:30;1.67;;;1.15;;
15258;SDS011;34462;51.368;12.364;2022-09-20T15:26:58;2.08;;;1.30;;
15258;SDS011;34462;51.368;12.364;2022-09-20T15:29:26;2.38;;;1.52;;
15258;SDS011;34462;51.368;12.364;2022-09-20T15:31:54;3.03;;;2.25;;
15258;SDS011;34462;51.368;12.364;2022-09-20T15:34:22;2.83;;;1.80;;
15258;SDS011;34462;51.368;12.364;2022-09-20T15:36:52;3.08;;;1.85;;
15258;SDS011;34462;51.368;12.364;2022-09-20T15:39:20;1.88;;;1.67;;
15258;SDS011;34462;51.368;12.364;2022-09-20T15:41:50;1.75;;;1.60;;
15258;SDS011;34462;51.368;12.364;2022-09-20T15:44:18;2.60;;;1.60;;
15258;SDS011;34462;51.368;12.364;2022-09-20T15:46:48;2.88;;;1.80;;
15258;SDS011;34462;51.368;12.364;2022-09-20T15:49:16;2.40;;;1.65;;
15258;SDS011;34462;51.368;12.364;2022-09-20T15:51:45;2.85;;;1.80;;
15258;SDS011;34462;51.368;12.364;2022-09-20T15:54:15;2.50;;;1.95;;
15258;SDS011;34462;51.368;12.364;2022-09-20T15:56:43;2.53;;;1.90;;
15258;SDS011;34462;51.368;12.364;2022-09-20T15:59:11;2.47;;;2.00;;
15258;SDS011;34462;51.368;12.364;2022-09-20T16:01:41;3.10;;;1.90;;
15258;SDS011;34462;51.368;12.364;2022-09-20T16:04:14;2.08;;;1.70;;
15258;SDS011;34462;51.368;12.364;2022-09-20T16:06:45;2.42;;;1.88;;
15258;SDS011;34462;51.368;12.364;2022-09-20T16:09:16;3.28;;;1.90;;
15258;SDS011;34462;51.368;12.364;2022-09-20T16:11:45;2.80;;;1.83;;
15258;SDS011;34462;51.368;12.364;2022-09-20T16:14:14;2.47;;;2.10;;
15258;SDS011;34462;51.368;12.364;2022-09-20T16:16:42;2.83;;;1.98;;
15258;SDS011;34462;51.368;12.364;2022-09-20T16:19:11;2.42;;;2.13;;
15258;SDS011;34462;51.368;12.364;2022-09-20T16:21:45;2.15;;;1.95;;
15258;SDS011;34462;51.368;12.364;2022-09-20T16:24:23;4.53;;;1.98;;
15258;SDS011;34462;51.368;12.364;2022-09-20T16:26:53;2.20;;;1.92;;
15258;SDS011;34462;51.368;12.364;2022-09-20T16:29:21;2.35;;;2.00;;
15258;SDS011;34462;51.368;12.364;2022-09-20T16:31:50;2.07;;;1.63;;
15258;SDS011;34462;51.368;12.364;2022-09-20T16:34:21;2.28;;;1.52;;
15258;SDS011;34462;51.368;12.364;2022-09-20T16:36:56;2.38;;;1.42;;
15258;SDS011;34462;51.368;12.364;2022-09-20T16:39:28;2.10;;;1.90;;